Time;durP1;ratioP1;P1;durP2;ratioP2;P2;SDS_P1;SDS_P2;PMS_P1;PMS_P2;Temp;Humidity;BMP_temperature;BMP_pressure;BME280_temperature;BME280_humidity;BME280_pressure;Samples;Min_cycle;Max_cycle;Signal;HPM_P1;HPM_P2
2023/10/13 00:02:01;;;;;;;5.70;4.37;;;19.10;99.90;;;;;;5073043;28;20578;-75
2023/10/13 00:04:31;;;;;;;3.57;2.90;;;19.10;99.90;;;;;;5055050;28;20590;-75
2023/10/13 00:06:56;;;;;;;7.23;4.43;;;19.10;99.90;;;;;;5072570;28;20629;-75
2023/10/13 00:09:32;;;;;;;6.67;3.70;;;19.10;99.90;;;;;;5055109;28;20741;-75
2023/10/13 00:12:00;;;;;;;4.90;3.90;;;19.10;99.90;;;;;;5085317;28;20179;-75
2023/10/13 00:14:33;;;;;;;9.07;4.27;;;19.10;99.90;;;;;;5092923;28;21209;-75
2023/10/13 00:17:03;;;;;;;7.30;4.80;;;19.10;99.90;;;;;;5092923;28;20590;-75
2023/10/13 00:19:45;;;;;;;4.63;3.90;;;19.10;99.90;;;;;;5092896;28;20629;-76
2023/10/13 00:22:12;;;;;;;6.10;3.87;;;19.10;99.90;;;;;;5084790;28;20574;-75
2023/10/13 00:24:50;;;;;;;4.67;4.03;;;19.10;99.90;;;;;;5093032;28;20605;-78
2023/10/13 00:27:33;;;;;;;6.47;4.17;;;19.10;99.90;;;;;;5092659;28;20589;-76
2023/10/13 00:32:54;;;;;;;4.80;3.83;;;19.10;99.90;;;;;;5074268;28;21234;-76
2023/10/13 00:35:28;;;;;;;6.30;4.23;;;19.10;99.90;;;;;;5057145;28;20936;-76
2023/10/13 00:37:59;;;;;;;7.63;5.10;;;19.10;99.90;;;;;;5074472;28;20961;-76
2023/10/13 00:45:45;;;;;;;5.10;4.33;;;19.10;99.90;;;;;;5073809;28;20597;-75
2023/10/13 00:48:12;;;;;;;9.40;4.33;;;19.10;99.90;;;;;;5080129;28;20582;-76
2023/10/13 00:50:38;;;;;;;7.07;4.27;;;19.10;99.90;;;;;;5072505;28;20582;-76
2023/10/13 00:53:04;;;;;;;9.43;4.50;;;19.10;99.90;;;;;;5037765;28;20618;-75
2023/10/13 00:55:33;;;;;;;5.63;4.27;;;19.10;99.90;;;;;;5054005;28;20673;-76
2023/10/13 00:58:03;;;;;;;7.70;4.30;;;19.10;99.90;;;;;;5053982;28;20659;-76
2023/10/13 01:00:33;;;;;;;6.50;4.73;;;19.10;99.90;;;;;;5037460;28;20587;-76
2023/10/13 01:03:06;;;;;;;6.57;4.70;;;19.10;99.90;;;;;;5072410;28;20617;-75
2023/10/13 01:05:33;;;;;;;8.90;5.50;;;19.10;99.90;;;;;;5073499;28;20585;-76
2023/10/13 01:08:03;;;;;;;4.97;4.30;;;19.10;99.90;;;;;;5091123;28;20578;-76
2023/10/13 01:10:32;;;;;;;9.20;6.20;;;19.10;99.90;;;;;;5074085;28;20608;-76
2023/10/13 01:13:02;;;;;;;6.23;4.80;;;19.10;99.90;;;;;;5073262;28;20648;-76
2023/10/13 01:15:33;;;;;;;5.67;5.13;;;19.10;99.90;;;;;;5056599;28;20570;-76
2023/10/13 01:18:16;;;;;;;8.37;5.17;;;19.10;99.90;;;;;;5073416;28;20732;-76
2023/10/13 01:20:52;;;;;;;6.40;5.30;;;19.10;99.90;;;;;;5056735;28;21142;-75
2023/10/13 01:23:24;;;;;;;5.83;4.70;;;19.10;99.90;;;;;;5073798;28;20609;-75
2023/10/13 01:25:50;;;;;;;5.40;4.67;;;19.10;99.90;;;;;;5073983;28;20601;-76
2023/10/13 01:28:16;;;;;;;7.40;4.37;;;19.10;99.90;;;;;;5056550;28;20578;-76
2023/10/13 01:30:52;;;;;;;8.53;4.93;;;19.10;99.90;;;;;;5056837;28;20176;-76
2023/10/13 01:33:28;;;;;;;8.60;5.07;;;19.10;99.90;;;;;;5073142;28;20731;-76
2023/10/13 01:35:59;;;;;;;7.60;5.03;;;19.10;99.90;;;;;;5073185;28;20599;-76
2023/10/13 01:38:28;;;;;;;6.17;4.57;;;19.10;99.90;;;;;;5073110;28;20633;-76
2023/10/13 01:40:56;;;;;;;5.40;4.57;;;19.10;99.90;;;;;;5056442;28;21158;-76
2023/10/13 01:43:23;;;;;;;5.20;4.57;;;19.10;99.90;;;;;;5073104;28;20613;-76
2023/10/13 01:45:49;;;;;;;6.40;5.30;;;19.10;99.90;;;;;;5056315;28;21096;-76
2023/10/13 01:48:18;;;;;;;10.57;4.80;;;19.10;99.90;;;;;;5072802;28;20589;-76
2023/10/13 01:50:53;;;;;;;6.63;4.60;;;19.10;99.90;;;;;;5091383;28;20581;-76
2023/10/13 01:53:22;;;;;;;8.30;5.67;;;19.10;99.90;;;;;;5057486;28;20628;-76
2023/10/13 01:55:48;;;;;;;13.07;5.60;;;19.10;99.90;;;;;;5059494;28;20597;-76
2023/10/13 01:58:18;;;;;;;9.50;5.30;;;19.10;99.90;;;;;;5056456;28;20643;-76
2023/10/13 02:00:47;;;;;;;5.73;5.03;;;19.10;99.90;;;;;;5056595;28;20640;-76
2023/10/13 02:03:17;;;;;;;7.87;6.17;;;19.10;99.90;;;;;;5056293;28;21095;-76
2023/10/13 02:05:47;;;;;;;7.20;5.30;;;19.10;99.90;;;;;;5056162;28;21177;-76
2023/10/13 02:08:23;;;;;;;6.73;5.30;;;19.10;99.90;;;;;;5072910;28;20676;-76
2023/10/13 02:10:54;;;;;;;7.80;4.87;;;19.10;99.90;;;;;;5064552;28;20598;-75
2023/10/13 02:13:22;;;;;;;6.20;4.97;;;19.10;99.90;;;;;;5055515;28;20625;-76
2023/10/13 02:15:51;;;;;;;8.10;5.27;;;19.10;99.90;;;;;;5055117;28;20973;-76
2023/10/13 02:18:26;;;;;;;7.17;5.27;;;19.10;99.90;;;;;;5043747;28;20635;-76
2023/10/13 02:20:56;;;;;;;7.70;5.60;;;19.20;99.90;;;;;;5044230;28;20570;-75
2023/10/13 02:23:29;;;;;;;6.53;5.20;;;19.10;99.90;;;;;;5052867;28;20614;-75
2023/10/13 02:26:11;;;;;;;7.80;4.97;;;19.10;99.90;;;;;;5053080;28;20597;-76
2023/10/13 02:28:38;;;;;;;9.27;5.60;;;19.10;99.90;;;;;;5044366;28;20590;-76
2023/10/13 02:31:04;;;;;;;8.93;6.10;;;19.10;99.90;;;;;;5070776;28;20594;-75
2023/10/13 02:33:31;;;;;;;8.17;5.53;;;19.10;99.90;;;;;;5066774;28;20238;-75
2023/10/13 02:36:05;;;;;;;5.53;4.67;;;19.10;99.90;;;;;;5046424;28;20582;-75
2023/10/13 02:41:25;;;;;;;7.57;5.97;;;19.10;99.90;;;;;;5035806;28;20582;-75
2023/10/13 02:43:52;;;;;;;8.73;4.90;;;19.10;99.90;;;;;;5052484;28;20612;-75
2023/10/13 02:46:21;;;;;;;6.17;5.40;;;19.10;99.90;;;;;;5080982;28;20577;-75
2023/10/13 02:48:54;;;;;;;8.83;5.63;;;19.10;99.90;;;;;;5089014;28;20613;-77
2023/10/13 02:51:25;;;;;;;8.93;6.30;;;19.10;99.90;;;;;;5039015;28;20596;-75
2023/10/13 02:53:52;;;;;;;8.00;6.17;;;19.10;99.90;;;;;;5063569;28;20599;-75
2023/10/13 02:56:22;;;;;;;8.07;6.30;;;19.10;99.90;;;;;;5063537;28;20615;-75
2023/10/13 02:58:56;;;;;;;12.40;7.37;;;19.10;99.90;;;;;;5072379;28;21197;-75
2023/10/13 03:01:28;;;;;;;6.30;5.20;;;19.10;99.90;;;;;;5090128;28;20643;-76
2023/10/13 03:03:55;;;;;;;6.87;5.67;;;19.10;99.90;;;;;;5055317;28;20628;-75
2023/10/13 03:06:24;;;;;;;9.50;6.50;;;19.10;99.90;;;;;;5071984;28;20625;-76
2023/10/13 03:08:52;;;;;;;8.30;6.73;;;19.10;99.90;;;;;;5075714;28;20609;-76
2023/10/13 03:11:24;;;;;;;5.67;4.77;;;19.10;99.90;;;;;;5076025;28;20581;-75
2023/10/13 03:13:52;;;;;;;8.63;6.20;;;19.10;99.90;;;;;;5058619;28;20618;-75
2023/10/13 03:16:19;;;;;;;7.97;5.80;;;19.10;99.90;;;;;;5075716;28;20578;-75
2023/10/13 03:18:56;;;;;;;8.47;6.10;;;19.10;99.90;;;;;;5076076;28;21237;-75
2023/10/13 03:21:29;;;;;;;9.13;6.03;;;19.10;99.90;;;;;;5059299;28;20642;-75
2023/10/13 03:24:04;;;;;;;7.70;5.87;;;19.10;99.90;;;;;;5093336;28;20655;-75
2023/10/13 03:26:36;;;;;;;10.10;6.80;;;19.10;99.90;;;;;;5075672;28;20624;-75
2023/10/13 03:29:04;;;;;;;10.43;6.10;;;19.10;99.90;;;;;;5059353;28;20596;-75
2023/10/13 03:31:36;;;;;;;8.70;5.70;;;19.20;99.90;;;;;;5075847;28;20586;-75
2023/10/13 03:34:04;;;;;;;9.20;6.20;;;19.20;99.90;;;;;;5058548;28;20637;-75
2023/10/13 03:36:56;;;;;;;6.97;6.00;;;19.10;99.90;;;;;;5075438;28;20982;-75
2023/10/13 03:39:29;;;;;;;9.73;6.30;;;19.20;99.90;;;;;;5093492;28;20633;-75
2023/10/13 03:41:57;;;;;;;10.03;6.07;;;19.20;99.90;;;;;;5093839;28;21024;-75
2023/10/13 03:44:23;;;;;;;8.97;5.37;;;19.20;99.90;;;;;;5075535;28;20643;-75
2023/10/13 03:46:49;;;;;;;9.47;6.20;;;19.20;99.90;;;;;;5093407;28;20576;-75
2023/10/13 03:49:25;;;;;;;11.00;6.23;;;19.20;99.90;;;;;;5056041;28;20586;-75
2023/10/13 03:51:54;;;;;;;8.67;5.90;;;19.20;99.90;;;;;;5058969;28;20982;-75
2023/10/13 03:54:20;;;;;;;8.87;6.30;;;19.30;99.90;;;;;;5073023;28;20606;-75
2023/10/13 03:56:46;;;;;;;8.43;6.00;;;19.30;99.90;;;;;;5055044;28;20665;-75
2023/10/13 04:01:53;;;;;;;7.50;5.03;;;19.20;99.90;;;;;;5093372;28;20180;-75
2023/10/13 04:04:36;;;;;;;9.27;6.33;;;19.30;99.90;;;;;;5092981;28;20604;-75
2023/10/13 04:17:27;;;;;;;11.53;6.03;;;19.40;99.90;;;;;;5085173;28;20585;-75
2023/10/13 04:21:03;;;;;;;6.33;5.23;;;19.50;99.90;;;;;;5092882;28;20660;-75
2023/10/13 04:33:52;;;;;;;10.60;6.17;;;19.50;99.90;;;;;;5080080;28;20731;-75
2023/10/13 04:49:28;;;;;;;11.20;7.30;;;19.50;99.90;;;;;;5092401;28;20597;-75
2023/10/13 04:51:59;;;;;;;8.63;6.23;;;19.40;99.90;;;;;;5074151;28;20585;-75
2023/10/13 04:54:45;;;;;;;13.17;6.50;;;19.50;99.90;;;;;;5070186;28;21254;-75
2023/10/13 04:57:23;;;;;;;9.00;6.03;;;19.40;99.90;;;;;;5054074;28;20598;-75
2023/10/13 05:51:46;;;;;;;8.73;5.60;;;19.70;99.90;;;;;;5054814;28;20590;-76
2023/10/13 06:29:53;;;;;;;9.77;5.03;;;19.80;99.90;;;;;;5074600;28;20579;-76
2023/10/13 06:32:19;;;;;;;11.00;6.20;;;19.90;99.90;;;;;;5052289;28;20986;-76
2023/10/13 06:34:46;;;;;;;8.63;6.00;;;19.90;99.90;;;;;;5035836;28;20604;-76
2023/10/13 06:37:30;;;;;;;8.63;4.90;;;19.90;99.90;;;;;;5053177;28;20574;-77
2023/10/13 06:39:59;;;;;;;12.10;5.20;;;19.90;99.90;;;;;;5035628;28;20626;-77
2023/10/13 06:42:28;;;;;;;11.60;4.57;;;19.90;99.90;;;;;;5053944;28;21232;-77
2023/10/13 06:44:55;;;;;;;9.90;5.07;;;20.00;99.90;;;;;;5073795;28;20617;-76
2023/10/13 06:47:24;;;;;;;11.40;5.70;;;20.00;99.90;;;;;;5093865;28;20601;-78
2023/10/13 06:49:54;;;;;;;13.23;4.80;;;20.00;99.90;;;;;;5095941;28;20613;-76
2023/10/13 06:52:22;;;;;;;9.07;5.17;;;20.10;99.90;;;;;;5085025;28;20594;-77
2023/10/13 06:54:51;;;;;;;10.00;5.40;;;20.10;99.90;;;;;;5086559;28;20592;-77
2023/10/13 06:57:23;;;;;;;8.73;4.60;;;20.20;99.90;;;;;;5074752;28;21091;-77
2023/10/13 06:59:49;;;;;;;9.70;4.23;;;20.20;99.90;;;;;;5074934;28;20700;-78
2023/10/13 07:02:21;;;;;;;10.60;5.93;;;20.20;99.90;;;;;;5063311;28;20587;-78
2023/10/13 07:07:45;;;;;;;8.30;5.63;;;20.30;99.90;;;;;;5056848;28;20633;-79
2023/10/13 07:10:12;;;;;;;10.83;6.07;;;20.40;99.90;;;;;;5089485;28;20581;-75
2023/10/13 07:12:43;;;;;;;12.53;5.13;;;20.40;99.90;;;;;;5075731;28;20611;-75
2023/10/13 07:17:44;;;;;;;11.70;4.60;;;20.50;99.90;;;;;;5094077;28;20912;-75
2023/10/13 07:20:34;;;;;;;16.00;5.63;;;20.50;99.90;;;;;;5067754;28;20691;-75
2023/10/13 07:23:03;;;;;;;12.40;5.50;;;20.60;99.90;;;;;;5077850;28;20640;-76
2023/10/13 07:25:32;;;;;;;8.53;5.63;;;20.70;99.90;;;;;;5093988;28;20670;-73
2023/10/13 07:28:08;;;;;;;10.90;6.03;;;20.70;99.90;;;;;;5075870;28;20594;-74
2023/10/13 07:31:08;;;;;;;10.67;5.03;;;20.70;99.90;;;;;;5058857;28;20589;-74
2023/10/13 07:33:34;;;;;;;9.87;4.90;;;20.80;99.90;;;;;;5063643;28;20640;-74
2023/10/13 07:36:11;;;;;;;8.80;4.70;;;20.80;99.90;;;;;;5088860;28;20581;-74
2023/10/13 07:38:37;;;;;;;9.03;4.20;;;20.90;99.90;;;;;;5050730;28;20636;-74
2023/10/13 07:41:15;;;;;;;8.73;4.73;;;20.90;99.90;;;;;;5091043;28;20608;-75
2023/10/13 07:43:42;;;;;;;9.70;5.43;;;20.90;99.90;;;;;;5072618;28;20620;-74
2023/10/13 07:46:12;;;;;;;9.20;5.07;;;21.00;99.90;;;;;;5068548;28;20732;-74
2023/10/13 07:48:45;;;;;;;10.40;5.10;;;21.00;99.90;;;;;;5090280;28;20574;-75
2023/10/13 07:51:13;;;;;;;8.73;4.60;;;21.00;99.90;;;;;;5088646;28;20600;-75
2023/10/13 07:53:48;;;;;;;12.57;4.40;;;21.10;99.90;;;;;;5077278;28;20624;-74
2023/10/13 07:56:18;;;;;;;9.77;4.27;;;21.10;99.90;;;;;;5073943;28;20609;-73
2023/10/13 07:58:52;;;;;;;9.93;4.93;;;21.20;99.90;;;;;;5072386;28;20720;-76
2023/10/13 08:01:19;;;;;;;8.13;4.30;;;21.20;99.90;;;;;;5090935;28;20585;-74
2023/10/13 08:03:46;;;;;;;7.17;3.87;;;21.30;99.90;;;;;;5074963;28;20613;-74
2023/10/13 08:08:43;;;;;;;7.63;4.20;;;21.40;99.90;;;;;;5074940;28;20590;-75
2023/10/13 08:13:59;;;;;;;12.93;5.60;;;21.60;99.90;;;;;;5042306;28;20602;-75
2023/10/13 08:19:15;;;;;;;9.57;4.30;;;21.80;99.90;;;;;;5074607;28;20632;-76
2023/10/13 08:21:48;;;;;;;11.00;4.00;;;21.90;99.90;;;;;;5071584;28;20581;-75
2023/10/13 08:24:16;;;;;;;11.70;4.50;;;22.00;99.90;;;;;;5086932;28;20616;-76
2023/10/13 08:26:57;;;;;;;8.43;4.23;;;22.10;99.90;;;;;;5090448;28;20576;-76
2023/10/13 08:32:14;;;;;;;8.57;4.00;;;22.20;99.90;;;;;;5094807;28;20684;-76
2023/10/13 08:37:28;;;;;;;4.77;3.70;;;22.40;99.90;;;;;;5075277;28;20638;-76
2023/10/13 08:39:58;;;;;;;7.80;4.07;;;22.50;99.90;;;;;;5087278;28;20963;-75
2023/10/13 08:45:53;;;;;;;8.60;4.37;;;22.70;99.90;;;;;;5094256;28;20645;-76
2023/10/13 09:04:31;;;;;;;7.43;4.00;;;23.40;99.90;;;;;;5042925;28;20564;-76
2023/10/13 09:12:19;;;;;;;5.57;3.43;;;23.70;99.90;;;;;;5074095;28;20582;-76
2023/10/13 09:14:58;;;;;;;7.23;3.53;;;23.90;99.90;;;;;;5093557;28;20754;-76
2023/10/13 09:17:34;;;;;;;7.77;4.10;;;24.00;99.90;;;;;;5074064;28;20620;-76
2023/10/13 09:25:38;;;;;;;6.63;3.27;;;24.50;99.90;;;;;;5073883;28;20577;-76
2023/10/13 09:28:21;;;;;;;7.43;3.17;;;24.70;99.90;;;;;;5073619;28;20585;-76
2023/10/13 09:30:48;;;;;;;9.60;3.50;;;24.90;99.90;;;;;;5075370;28;20586;-76
2023/10/13 09:33:32;;;;;;;8.57;4.80;;;25.20;99.90;;;;;;5091851;28;20625;-77
2023/10/13 09:35:59;;;;;;;7.83;4.03;;;25.60;99.90;;;;;;5091490;28;20915;-76
2023/10/13 09:38:29;;;;;;;8.13;3.73;;;26.40;99.90;;;;;;5073575;28;20632;-75
2023/10/13 09:40:58;;;;;;;6.70;3.37;;;27.00;99.90;;;;;;5091532;28;20582;-75
2023/10/13 09:43:25;;;;;;;5.27;3.30;;;27.60;99.90;;;;;;5073100;28;20601;-76
2023/10/13 09:46:01;;;;;;;6.00;3.60;;;28.20;99.90;;;;;;5073102;28;20590;-76
2023/10/13 09:48:41;;;;;;;8.23;3.33;;;28.90;99.90;;;;;;5091392;28;20612;-76
2023/10/13 09:51:12;;;;;;;5.90;3.43;;;29.50;99.90;;;;;;5091442;28;20646;-73
2023/10/13 09:53:40;;;;;;;4.80;4.30;;;30.10;99.90;;;;;;5072984;28;21221;-76
2023/10/13 09:56:13;;;;;;;6.47;3.13;;;30.60;99.90;;;;;;5091969;28;20652;-75
2023/10/13 09:59:08;;;;;;;5.57;3.10;;;31.10;99.90;;;;;;5072979;28;20641;-74
2023/10/13 10:01:40;;;;;;;7.47;3.70;;;31.60;99.90;;;;;;5054078;28;20675;-75
2023/10/13 10:04:18;;;;;;;6.30;3.63;;;32.20;99.90;;;;;;5070923;28;20614;-76
2023/10/13 10:06:59;;;;;;;6.53;3.60;;;32.50;99.90;;;;;;5081613;28;20585;-75
2023/10/13 10:09:34;;;;;;;5.47;3.80;;;32.60;99.90;;;;;;5072779;28;20592;-76
2023/10/13 10:12:29;;;;;;;5.97;4.13;;;32.50;99.90;;;;;;5066846;28;21218;-75
2023/10/13 10:15:30;;;;;;;6.00;3.60;;;32.30;99.90;;;;;;5053095;28;20604;-75
2023/10/13 10:17:56;;;;;;;9.93;4.30;;;31.90;99.90;;;;;;5070597;28;20657;-75
2023/10/13 10:20:39;;;;;;;9.47;4.13;;;31.60;99.90;;;;;;5036265;28;20583;-75
2023/10/13 10:23:09;;;;;;;7.70;3.63;;;31.40;99.90;;;;;;5052569;28;20639;-75
2023/10/13 10:25:37;;;;;;;6.17;3.33;;;31.40;99.90;;;;;;5070481;28;20569;-76
2023/10/13 10:28:05;;;;;;;5.53;4.17;;;31.50;99.90;;;;;;5070692;28;20574;-76
2023/10/13 10:30:33;;;;;;;5.40;3.07;;;31.70;99.90;;;;;;5053613;28;20578;-75
2023/10/13 10:33:03;;;;;;;6.67;3.30;;;31.90;99.90;;;;;;5035618;28;20614;-75
2023/10/13 10:35:35;;;;;;;5.03;3.60;;;32.20;99.90;;;;;;5070422;28;20667;-75
2023/10/13 10:38:23;;;;;;;5.40;3.57;;;32.60;99.90;;;;;;5078758;28;20590;-75
2023/10/13 10:41:00;;;;;;;5.83;3.90;;;32.80;99.90;;;;;;5078885;28;21116;-74
2023/10/13 10:43:42;;;;;;;6.83;3.47;;;33.20;99.90;;;;;;5071484;28;20624;-74
2023/10/13 10:46:28;;;;;;;7.23;4.50;;;33.30;99.90;;;;;;5070333;28;20635;-74
2023/10/13 10:49:00;;;;;;;5.67;4.00;;;33.30;99.90;;;;;;5066498;28;20643;-75
2023/10/13 10:51:31;;;;;;;7.63;3.90;;;33.20;99.90;;;;;;5087865;28;20891;-74
2023/10/13 10:53:58;;;;;;;6.57;3.83;;;33.00;99.90;;;;;;5072359;28;20601;-74
2023/10/13 10:58:59;;;;;;;9.10;4.13;;;32.50;99.90;;;;;;5082682;28;20709;-74
2023/10/13 11:01:38;;;;;;;6.37;3.60;;;32.20;99.90;;;;;;5072356;28;21270;-74
2023/10/13 11:04:08;;;;;;;7.87;4.80;;;31.90;99.90;;;;;;5090523;28;21058;-74
2023/10/13 11:06:46;;;;;;;7.77;4.30;;;31.60;99.90;;;;;;5072055;28;20587;-74
2023/10/13 11:09:18;;;;;;;9.83;4.60;;;31.40;99.90;;;;;;5072349;28;20722;-74
2023/10/13 11:11:52;;;;;;;6.87;4.27;;;31.40;99.90;;;;;;5090241;28;20574;-75
2023/10/13 11:14:38;;;;;;;7.37;4.00;;;31.40;99.90;;;;;;5072256;28;20962;-78
2023/10/13 11:17:13;;;;;;;7.50;3.50;;;31.30;99.90;;;;;;5091340;28;20614;-78
2023/10/13 11:19:40;;;;;;;8.53;4.00;;;31.20;99.90;;;;;;5091438;28;20959;-78
2023/10/13 11:22:46;;;;;;;7.00;4.80;;;31.00;99.90;;;;;;5077215;28;20586;-78
2023/10/13 11:25:22;;;;;;;5.03;3.33;;;30.70;99.90;;;;;;5083145;28;20562;-78
2023/10/13 11:30:24;;;;;;;7.27;3.00;;;30.10;99.90;;;;;;5069892;28;20589;-77
2023/10/13 11:33:28;;;;;;;6.60;4.10;;;29.90;99.90;;;;;;5066332;28;20685;-78
2023/10/13 11:35:55;;;;;;;7.50;3.87;;;29.60;99.90;;;;;;5068601;28;20638;-78
2023/10/13 11:38:26;;;;;;;6.90;3.70;;;29.30;99.90;;;;;;5086638;28;20663;-78
2023/10/13 11:46:55;;;;;;;5.00;3.40;;;28.70;99.90;;;;;;5093896;28;20648;-78
2023/10/13 11:51:38;;;;;;;7.80;4.03;;;28.50;99.90;;;;;;5093837;28;20911;-77
2023/10/13 11:54:03;;;;;;;8.10;3.70;;;28.50;99.90;;;;;;5093773;28;20590;-78
2023/10/13 11:56:29;;;;;;;6.13;3.33;;;28.50;99.90;;;;;;5090023;28;20585;-78
2023/10/13 11:59:01;;;;;;;7.00;3.97;;;28.50;99.90;;;;;;5094392;28;20704;-79
2023/10/13 12:04:32;;;;;;;11.20;4.13;;;28.60;99.90;;;;;;5060544;28;20595;-79
2023/10/13 12:07:14;;;;;;;6.83;3.60;;;28.80;99.90;;;;;;5087799;28;20577;-78
2023/10/13 12:12:23;;;;;;;7.50;3.10;;;28.80;99.90;;;;;;5072972;28;20648;-78
2023/10/13 12:14:55;;;;;;;5.30;3.30;;;28.80;99.90;;;;;;5095707;28;20642;-78
2023/10/13 12:17:25;;;;;;;6.57;3.30;;;28.70;99.90;;;;;;5077576;28;20598;-79
2023/10/13 12:19:56;;;;;;;10.93;4.00;;;28.50;99.90;;;;;;5076982;28;20659;-78
2023/10/13 12:22:28;;;;;;;9.27;4.10;;;28.40;99.90;;;;;;5076465;28;20611;-79
2023/10/13 12:24:55;;;;;;;4.33;3.47;;;28.20;99.90;;;;;;5076265;28;20680;-79
2023/10/13 12:27:26;;;;;;;5.60;2.57;;;28.10;99.90;;;;;;5075922;28;20679;-79
2023/10/13 12:29:56;;;;;;;6.30;3.60;;;28.00;99.90;;;;;;5090907;28;21138;-79
2023/10/13 12:32:24;;;;;;;10.87;3.53;;;27.80;99.90;;;;;;5071983;28;20764;-79
2023/10/13 12:37:38;;;;;;;7.77;3.33;;;27.60;99.90;;;;;;5075868;28;20584;-75
2023/10/13 12:54:04;;;;;;;8.30;4.40;;;27.00;99.90;;;;;;5074304;28;21170;-75
2023/10/13 12:56:30;;;;;;;6.93;3.33;;;26.90;99.90;;;;;;5069974;28;20988;-75
2023/10/13 12:58:56;;;;;;;7.60;3.70;;;26.80;99.90;;;;;;5054153;28;20725;-75
2023/10/13 13:01:24;;;;;;;7.03;3.30;;;26.80;99.90;;;;;;5054378;28;21169;-75
2023/10/13 13:03:55;;;;;;;8.57;4.10;;;26.80;99.90;;;;;;5071856;28;20610;-75
2023/10/13 13:06:25;;;;;;;8.18;3.70;;;26.70;99.90;;;;;;5071627;28;20707;-75
2023/10/13 13:08:55;;;;;;;8.50;3.60;;;26.70;99.90;;;;;;5054015;28;20168;-76
2023/10/13 13:11:21;;;;;;;5.43;3.53;;;26.60;99.90;;;;;;5053920;28;20592;-75
2023/10/13 13:13:47;;;;;;;6.03;2.83;;;26.60;99.90;;;;;;5053760;28;20660;-75
2023/10/13 13:16:14;;;;;;;5.50;3.30;;;26.60;99.90;;;;;;5053869;28;20195;-75
2023/10/13 13:18:39;;;;;;;5.20;3.30;;;26.60;99.90;;;;;;5071699;28;20672;-75
2023/10/13 13:21:06;;;;;;;5.80;2.90;;;26.60;99.90;;;;;;5054176;28;20583;-75
2023/10/13 13:23:34;;;;;;;11.03;3.73;;;26.50;99.90;;;;;;5037716;28;20235;-75
2023/10/13 13:26:00;;;;;;;8.63;3.10;;;26.50;99.90;;;;;;5074318;28;20581;-75
2023/10/13 13:28:28;;;;;;;6.00;2.90;;;26.50;99.90;;;;;;5090406;28;20586;-76
2023/10/13 13:30:55;;;;;;;7.93;3.50;;;26.40;99.90;;;;;;5074679;28;20576;-76
2023/10/13 13:33:25;;;;;;;9.70;3.73;;;26.40;99.90;;;;;;5073239;28;20634;-75
2023/10/13 13:35:54;;;;;;;8.17;2.90;;;26.40;99.90;;;;;;5091171;28;20944;-76
2023/10/13 13:38:27;;;;;;;8.33;3.20;;;26.40;99.90;;;;;;5073433;28;20633;-75
2023/10/13 13:40:54;;;;;;;6.50;3.60;;;26.30;99.90;;;;;;5073411;28;21193;-75
2023/10/13 13:43:38;;;;;;;9.30;4.00;;;26.30;99.90;;;;;;5091492;28;20621;-76
2023/10/13 13:46:10;;;;;;;5.73;2.60;;;26.30;99.90;;;;;;5091333;28;21022;-76
2023/10/13 13:48:40;;;;;;;6.90;3.17;;;26.30;99.90;;;;;;5073204;28;20593;-75
2023/10/13 13:51:14;;;;;;;9.20;3.90;;;26.20;99.90;;;;;;5073083;28;21013;-76
2023/10/13 13:53:44;;;;;;;7.10;4.03;;;26.10;99.90;;;;;;5073170;28;20614;-76
2023/10/13 13:56:18;;;;;;;5.70;3.30;;;26.10;99.90;;;;;;5091123;28;20626;-76
2023/10/13 13:58:48;;;;;;;6.80;3.30;;;26.00;99.90;;;;;;5071028;28;20630;-75
2023/10/13 14:01:15;;;;;;;7.17;3.93;;;26.00;99.90;;;;;;5071043;28;20611;-75
2023/10/13 14:03:45;;;;;;;7.20;2.87;;;26.00;99.90;;;;;;5070823;28;20602;-75
2023/10/13 14:06:24;;;;;;;6.63;3.40;;;25.90;99.90;;;;;;5052815;28;20686;-75
2023/10/13 14:08:59;;;;;;;8.23;3.60;;;26.00;99.90;;;;;;5038268;28;20594;-75
2023/10/13 14:14:28;;;;;;;8.33;3.03;;;26.00;99.90;;;;;;5082237;28;20605;-75
2023/10/13 14:17:03;;;;;;;7.67;2.80;;;26.10;99.90;;;;;;5090500;28;20578;-76
2023/10/13 14:19:29;;;;;;;10.30;3.77;;;26.10;99.90;;;;;;5074251;28;20628;-76
2023/10/13 14:21:58;;;;;;;10.23;3.03;;;26.20;99.90;;;;;;5056009;28;20578;-76
2023/10/13 14:24:32;;;;;;;5.23;4.20;;;26.20;99.90;;;;;;5072747;28;20199;-76
2023/10/13 14:27:23;;;;;;;10.00;3.30;;;26.20;99.90;;;;;;5072683;28;20699;-75
2023/10/13 14:29:52;;;;;;;7.60;3.20;;;26.30;99.90;;;;;;5090408;28;20677;-75
2023/10/13 14:32:19;;;;;;;10.40;4.33;;;26.30;99.90;;;;;;5072315;28;20639;-75
2023/10/13 14:34:48;;;;;;;13.10;3.63;;;26.20;99.90;;;;;;5072649;28;20698;-75
2023/10/13 14:37:20;;;;;;;8.55;3.80;;;26.30;99.90;;;;;;5090042;28;20749;-75
2023/10/13 14:39:46;;;;;;;7.13;2.67;;;26.20;99.90;;;;;;5072634;28;20210;-75
2023/10/13 14:42:12;;;;;;;6.47;3.40;;;26.20;99.90;;;;;;5090645;28;20582;-75
2023/10/13 14:44:38;;;;;;;9.00;3.57;;;26.20;99.90;;;;;;5091192;28;20160;-76
2023/10/13 14:47:08;;;;;;;9.13;3.10;;;26.20;99.90;;;;;;5090358;28;20656;-75
2023/10/13 14:49:35;;;;;;;7.50;2.90;;;26.20;99.90;;;;;;5090687;28;20185;-75
2023/10/13 14:52:01;;;;;;;8.20;3.23;;;26.20;99.90;;;;;;5090597;28;20989;-75
2023/10/13 14:54:32;;;;;;;7.30;2.87;;;26.20;99.90;;;;;;5072534;28;20609;-75
2023/10/13 14:57:07;;;;;;;10.30;3.10;;;26.20;99.90;;;;;;5084073;28;20614;-75
2023/10/13 14:59:33;;;;;;;5.60;3.10;;;26.10;99.90;;;;;;5052364;28;20978;-76
2023/10/13 15:02:01;;;;;;;7.90;2.70;;;26.10;99.90;;;;;;5070126;28;20670;-75
2023/10/13 15:04:28;;;;;;;5.80;2.50;;;26.10;99.90;;;;;;5073427;28;20189;-75
2023/10/13 15:06:55;;;;;;;7.57;2.90;;;26.10;99.90;;;;;;5073997;28;20586;-76
2023/10/13 15:09:23;;;;;;;10.30;3.10;;;26.00;99.90;;;;;;5056594;28;20590;-76
2023/10/13 15:11:53;;;;;;;9.10;4.00;;;26.00;99.90;;;;;;5074060;28;20578;-75
2023/10/13 15:14:22;;;;;;;8.83;3.80;;;25.90;99.90;;;;;;5056316;28;20717;-75
2023/10/13 15:16:49;;;;;;;7.10;2.80;;;25.80;99.90;;;;;;5074115;28;20638;-75
2023/10/13 15:19:16;;;;;;;6.03;3.13;;;25.80;99.90;;;;;;5094352;28;20621;-75
2023/10/13 15:21:42;;;;;;;5.80;2.80;;;25.70;99.90;;;;;;5094225;28;20602;-75
2023/10/13 15:24:15;;;;;;;7.27;2.80;;;25.70;99.90;;;;;;5076015;28;20612;-75
2023/10/13 15:26:45;;;;;;;5.10;2.93;;;25.70;99.90;;;;;;5067555;28;20722;-76
2023/10/13 15:29:16;;;;;;;5.77;2.77;;;25.60;99.90;;;;;;5063140;28;20677;-76
2023/10/13 15:32:04;;;;;;;8.40;3.97;;;25.60;99.90;;;;;;5055881;28;20597;-76
2023/10/13 15:34:31;;;;;;;5.70;2.70;;;25.50;99.90;;;;;;5073811;28;20636;-75
2023/10/13 15:36:58;;;;;;;4.60;2.80;;;25.50;99.90;;;;;;5038223;28;20669;-75
2023/10/13 15:39:28;;;;;;;5.80;3.50;;;25.50;99.90;;;;;;5073655;28;20631;-75
2023/10/13 15:41:58;;;;;;;10.73;3.50;;;25.40;99.90;;;;;;5057757;28;20583;-75
2023/10/13 15:44:29;;;;;;;6.00;2.60;;;25.40;99.90;;;;;;5093752;28;20637;-75
2023/10/13 15:46:57;;;;;;;5.20;2.37;;;25.40;99.90;;;;;;5091497;28;21040;-75
2023/10/13 15:49:23;;;;;;;7.73;2.70;;;25.40;99.90;;;;;;5055530;28;20677;-75
2023/10/13 15:51:49;;;;;;;7.87;2.47;;;25.40;99.90;;;;;;5055662;28;20669;-75
2023/10/13 15:54:17;;;;;;;7.40;2.90;;;25.30;99.90;;;;;;5055396;28;21198;-75
2023/10/13 15:56:46;;;;;;;4.67;2.67;;;25.30;99.90;;;;;;5095144;28;20588;-75
2023/10/13 15:59:12;;;;;;;5.10;2.90;;;25.20;99.90;;;;;;5075469;28;20628;-75
2023/10/13 16:01:40;;;;;;;8.53;2.63;;;25.10;99.90;;;;;;5093883;28;20634;-76
2023/10/13 16:04:13;;;;;;;5.80;2.60;;;25.10;99.90;;;;;;5093481;28;20629;-75
2023/10/13 16:06:46;;;;;;;5.43;2.90;;;25.00;99.90;;;;;;5058323;28;20585;-75
2023/10/13 16:09:19;;;;;;;4.73;2.63;;;25.00;99.90;;;;;;5075474;28;20607;-75
2023/10/13 16:11:46;;;;;;;6.60;3.10;;;25.00;99.90;;;;;;5066242;28;21171;-75
2023/10/13 16:14:17;;;;;;;5.23;3.10;;;24.90;99.90;;;;;;5055041;28;20614;-75
2023/10/13 16:16:52;;;;;;;15.33;3.60;;;24.90;99.90;;;;;;5055117;28;20587;-76
2023/10/13 16:19:23;;;;;;;5.43;3.10;;;24.90;99.90;;;;;;5093194;28;20744;-76
2023/10/13 16:21:54;;;;;;;5.40;2.97;;;24.90;99.90;;;;;;5093559;28;20605;-75
2023/10/13 16:24:20;;;;;;;7.33;3.00;;;24.80;99.90;;;;;;5093332;28;20658;-75
2023/10/13 16:26:55;;;;;;;6.07;2.90;;;24.80;99.90;;;;;;5075838;28;20986;-76
2023/10/13 16:29:21;;;;;;;5.77;2.90;;;24.80;99.90;;;;;;5094150;28;20597;-75
2023/10/13 16:31:48;;;;;;;8.17;3.03;;;24.80;99.90;;;;;;5067898;28;20586;-75
2023/10/13 16:34:18;;;;;;;3.80;2.03;;;24.80;99.90;;;;;;5083460;28;20670;-75
2023/10/13 16:36:45;;;;;;;6.50;2.80;;;24.70;99.90;;;;;;5089696;28;20578;-76
2023/10/13 16:39:14;;;;;;;6.07;3.33;;;24.70;99.90;;;;;;5084673;28;20977;-76
2023/10/13 16:41:41;;;;;;;6.30;2.90;;;24.80;99.90;;;;;;5093253;28;20573;-76
2023/10/13 16:44:11;;;;;;;8.60;2.93;;;24.70;99.90;;;;;;5074848;28;20602;-76
2023/10/13 16:46:38;;;;;;;6.30;3.03;;;24.70;99.90;;;;;;5092718;28;20613;-75
2023/10/13 16:49:04;;;;;;;4.87;2.83;;;24.70;99.90;;;;;;5071543;28;20603;-76
2023/10/13 16:51:30;;;;;;;4.70;3.47;;;24.70;99.90;;;;;;5072560;28;20578;-76